Time;durP1;ratioP1;P1;durP2;ratioP2;P2;SDS_P1;SDS_P2;PMS_P1;PMS_P2;Temp;Humidity;BMP_temperature;BMP_pressure;BME280_temperature;BME280_humidity;BME280_pressure;Samples;Min_cycle;Max_cycle;Signal;HPM_P1;HPM_P2
2023/05/16 03:56:55;;;;;;;4.70;3.30;;;;;;;15.38;91.65;99986.09;5606711;31;79458;-56
2023/05/16 03:59:57;;;;;;;3.72;3.00;;;;;;;15.38;91.65;99986.09;5583936;32;34243;-56
2023/05/16 04:02:59;;;;;;;4.25;2.75;;;;;;;14.92;96.71;99990.28;5583667;31;33493;-56
2023/05/16 04:06:02;;;;;;;6.87;3.08;;;;;;;14.92;94.74;99986.81;5583913;32;33628;-56
2023/05/16 04:09:05;;;;;;;3.22;2.70;;;;;;;14.97;94.62;99989.34;5583921;32;33794;-56
2023/05/16 04:12:07;;;;;;;4.25;3.05;;;;;;;15.16;100.00;99984.38;5583947;32;33525;-56
2023/05/16 04:15:10;;;;;;;4.60;2.85;;;;;;;15.08;94.01;99979.00;5584551;31;33638;-57
2023/05/16 04:18:12;;;;;;;3.33;2.80;;;;;;;15.08;94.91;99997.91;5602446;31;34311;-57
2023/05/16 04:21:15;;;;;;;2.67;2.22;;;;;;;15.03;100.00;100004.25;5602455;31;33588;-56
2023/05/16 04:24:17;;;;;;;3.35;2.50;;;;;;;15.13;91.63;99998.56;5603397;31;33237;-57
2023/05/16 04:27:20;;;;;;;4.03;2.17;;;;;;;15.06;91.57;99990.12;5602849;31;33654;-56
2023/05/16 04:30:22;;;;;;;6.47;2.40;;;;;;;15.14;92.03;99999.34;5603258;31;35140;-57
2023/05/16 04:33:24;;;;;;;4.10;2.33;;;;;;;15.12;89.74;100015.06;5603347;31;33546;-56
2023/05/16 04:36:28;;;;;;;2.60;2.40;;;;;;;15.09;88.56;100013.00;5603139;31;33678;-56
2023/05/16 04:39:31;;;;;;;2.97;2.53;;;;;;;15.11;89.97;100002.69;5603182;31;33678;-57
2023/05/16 04:42:33;;;;;;;4.50;2.58;;;;;;;15.15;89.92;100011.72;5602911;31;33606;-56
2023/05/16 04:45:35;;;;;;;3.83;2.40;;;;;;;15.25;87.62;100022.19;5603254;31;34245;-56
2023/05/16 04:48:39;;;;;;;5.97;3.00;;;;;;;15.21;100.00;100018.53;5602886;31;33675;-57
2023/05/16 04:51:41;;;;;;;2.50;2.30;;;;;;;15.28;98.67;100016.16;5603154;31;34167;-56
2023/05/16 04:54:43;;;;;;;4.55;2.40;;;;;;;15.35;91.65;100021.84;5602806;31;33426;-56
2023/05/16 04:57:46;;;;;;;4.15;1.98;;;;;;;15.44;91.75;100024.53;5586575;31;33673;-56
2023/05/16 05:00:50;;;;;;;2.22;2.03;;;;;;;15.44;90.07;100032.66;5581999;31;34298;-58
2023/05/16 05:03:52;;;;;;;5.18;2.20;;;;;;;15.41;89.35;100036.00;5582669;32;33841;-57
2023/05/16 05:06:55;;;;;;;2.72;2.33;;;;;;;15.40;84.55;100039.81;5575554;31;33531;-59
2023/05/16 05:09:57;;;;;;;5.57;2.08;;;;;;;15.39;93.08;100027.41;5569743;32;33651;-59
2023/05/16 05:13:00;;;;;;;4.22;2.10;;;;;;;15.41;89.40;100030.59;5569665;32;33640;-59
2023/05/16 05:16:03;;;;;;;5.37;2.15;;;;;;;15.38;86.68;100044.72;5569514;32;33757;-59
2023/05/16 05:19:07;;;;;;;2.80;1.90;;;;;;;15.43;89.43;100045.38;5569876;32;34327;-59
2023/05/16 05:22:09;;;;;;;7.47;2.40;;;;;;;15.35;91.08;100048.06;5569756;32;33628;-59
2023/05/16 05:25:13;;;;;;;2.85;1.87;;;;;;;15.32;91.41;100032.50;5569702;32;34352;-59
2023/05/16 05:28:15;;;;;;;3.40;2.05;;;;;;;15.34;90.85;100030.28;5569715;32;33603;-59
2023/05/16 05:31:17;;;;;;;3.25;2.10;;;;;;;15.39;90.71;100035.50;5569671;32;34268;-59
2023/05/16 05:34:20;;;;;;;3.62;2.55;;;;;;;15.37;90.61;100032.34;5569558;32;33264;-59
2023/05/16 05:37:22;;;;;;;5.90;2.85;;;;;;;15.31;91.41;100030.94;5569770;32;34280;-59
2023/05/16 05:40:25;;;;;;;3.80;2.47;;;;;;;15.33;89.06;100024.09;5566318;32;34360;-59
2023/05/16 05:43:27;;;;;;;3.47;2.40;;;;;;;15.31;89.23;100023.63;5564576;32;33790;-59
2023/05/16 05:46:30;;;;;;;3.50;2.20;;;;;;;15.33;100.00;100016.00;5568801;32;33328;-59
2023/05/16 05:49:33;;;;;;;7.07;2.30;;;;;;;15.38;91.67;100017.72;5569247;32;33737;-59
2023/05/16 05:52:35;;;;;;;3.97;2.75;;;;;;;15.47;91.27;100032.00;5569232;32;33868;-59
2023/05/16 05:55:40;;;;;;;3.40;2.47;;;;;;;15.48;90.26;100034.38;5569021;32;33597;-59
2023/05/16 05:58:43;;;;;;;4.95;2.33;;;;;;;15.53;93.68;100030.72;5568398;32;34082;-59
2023/05/16 06:01:45;;;;;;;3.80;2.40;;;;;;;15.49;91.32;100027.84;5567855;32;33365;-60
2023/05/16 06:04:48;;;;;;;6.07;2.83;;;;;;;15.47;90.72;100035.50;5569689;32;33668;-59
2023/05/16 06:07:50;;;;;;;4.30;2.25;;;;;;;15.60;92.57;100022.12;5569688;32;33765;-59
2023/05/16 06:10:53;;;;;;;4.75;2.40;;;;;;;15.52;89.30;100027.22;5567222;31;34271;-59
2023/05/16 06:13:55;;;;;;;5.12;2.50;;;;;;;15.50;95.25;100009.75;5568614;32;33169;-59
2023/05/16 06:16:57;;;;;;;2.15;1.90;;;;;;;15.51;88.98;100006.72;5569069;32;34284;-59
2023/05/16 06:20:00;;;;;;;2.60;2.00;;;;;;;15.50;92.01;100007.84;5568081;32;33831;-59
2023/05/16 06:23:02;;;;;;;3.75;1.95;;;;;;;15.59;92.08;100018.59;5569148;31;33561;-59
2023/05/16 06:26:04;;;;;;;6.35;2.58;;;;;;;15.65;89.54;100016.53;5567617;31;33697;-59
2023/05/16 06:29:07;;;;;;;5.03;2.28;;;;;;;15.52;88.85;100007.50;5568832;31;34320;-59
2023/05/16 06:32:09;;;;;;;2.90;2.08;;;;;;;15.52;90.89;99996.72;5568043;32;34368;-59
2023/05/16 06:35:15;;;;;;;7.40;2.37;;;;;;;15.51;89.83;100000.53;5568198;32;33784;-59
2023/05/16 06:38:18;;;;;;;5.50;2.40;;;;;;;15.49;93.30;100006.25;5569104;32;33321;-59
2023/05/16 06:41:21;;;;;;;4.70;2.92;;;;;;;15.59;100.00;99993.50;5568240;32;33545;-59
2023/05/16 06:44:23;;;;;;;3.60;2.67;;;;;;;15.50;93.56;99996.25;5568657;32;34263;-59
2023/05/16 06:47:25;;;;;;;3.03;2.70;;;;;;;15.47;87.77;99996.91;5567026;32;34242;-59
2023/05/16 06:50:28;;;;;;;5.20;3.10;;;;;;;15.33;93.64;100002.50;5567665;32;33691;-59
2023/05/16 06:53:30;;;;;;;4.93;2.55;;;;;;;15.35;94.75;100015.66;5568231;32;33871;-59
2023/05/16 06:56:33;;;;;;;6.47;3.12;;;;;;;15.39;90.72;100006.59;5567934;32;33617;-59
2023/05/16 06:59:35;;;;;;;9.75;3.20;;;;;;;15.38;96.01;100010.41;5568359;32;33618;-59
2023/05/16 07:02:37;;;;;;;11.27;3.28;;;;;;;15.51;93.87;100014.81;5567509;31;33753;-59
2023/05/16 07:05:40;;;;;;;7.35;3.47;;;;;;;15.56;92.52;100013.06;5568570;32;33152;-59
2023/05/16 07:08:42;;;;;;;5.90;3.30;;;;;;;15.47;93.93;100013.09;5567292;31;34273;-57
2023/05/16 07:12:27;;;;;;;4.75;3.50;;;;;;;15.47;100.00;100019.28;5568126;32;33257;-57
2023/05/16 07:15:30;;;;;;;6.60;4.47;;;;;;;15.50;97.29;100013.25;5567443;32;33577;-57
2023/05/16 07:18:32;;;;;;;7.25;4.25;;;;;;;15.55;97.28;100014.19;5567771;32;33565;-58
2023/05/16 07:21:35;;;;;;;9.05;4.07;;;;;;;15.56;98.04;100008.44;5567820;32;33710;-58
2023/05/16 07:24:37;;;;;;;9.07;4.05;;;;;;;15.50;97.59;99998.94;5568506;32;33539;-57
2023/05/16 07:27:43;;;;;;;7.60;4.28;;;;;;;15.59;100.00;99993.50;5568530;32;33591;-58
2023/05/16 07:30:46;;;;;;;7.53;4.75;;;;;;;15.60;100.00;99990.50;5568248;32;34271;-57
2023/05/16 07:33:49;;;;;;;7.90;4.97;;;;;;;15.48;98.36;99991.16;5568295;32;34287;-58
2023/05/16 07:36:51;;;;;;;9.10;5.12;;;;;;;15.47;99.03;99992.28;5567923;32;33233;-58
2023/05/16 07:39:54;;;;;;;6.18;5.12;;;;;;;15.38;100.00;99990.72;5566828;32;34255;-58
2023/05/16 07:42:58;;;;;;;9.50;5.05;;;;;;;15.34;99.55;99998.66;5557274;32;34413;-58
2023/05/16 07:46:01;;;;;;;8.50;5.87;;;;;;;15.41;100.00;99993.56;5567942;32;33766;-58
2023/05/16 07:49:03;;;;;;;8.70;5.62;;;;;;;15.46;100.00;99993.41;5568317;32;33014;-58
2023/05/16 07:52:06;;;;;;;8.70;5.72;;;;;;;15.59;100.00;99985.41;5567995;32;33569;-58
2023/05/16 07:55:08;;;;;;;9.10;6.60;;;;;;;15.68;100.00;99980.78;5568089;32;33943;-58
2023/05/16 07:58:11;;;;;;;8.65;6.70;;;;;;;15.54;100.00;99972.88;5567592;31;34103;-58
2023/05/16 08:01:16;;;;;;;10.05;6.50;;;;;;;15.46;100.00;99981.78;5565895;31;33881;-58
2023/05/16 08:04:19;;;;;;;12.52;6.97;;;;;;;15.41;100.00;99985.47;5566219;32;33883;-58
2023/05/16 08:07:21;;;;;;;8.02;6.15;;;;;;;15.45;100.00;99989.09;5567737;32;33660;-58
2023/05/16 08:10:23;;;;;;;10.25;6.93;;;;;;;15.52;100.00;99985.91;5567926;31;33623;-58
2023/05/16 08:13:25;;;;;;;9.70;7.00;;;;;;;15.51;100.00;99987.81;5566939;32;33482;-58
2023/05/16 08:16:28;;;;;;;10.35;6.82;;;;;;;15.49;100.00;99997.34;5567818;32;33854;-58
2023/05/16 08:19:31;;;;;;;10.18;7.37;;;;;;;15.42;100.00;99997.06;5567085;32;34250;-58
2023/05/16 08:22:34;;;;;;;12.52;6.65;;;;;;;15.50;100.00;99994.34;5567845;32;34311;-58
2023/05/16 08:25:37;;;;;;;11.07;6.80;;;;;;;15.47;100.00;99992.28;5566846;32;34182;-57
2023/05/16 08:28:39;;;;;;;9.23;6.60;;;;;;;15.51;100.00;99995.13;5566275;32;33601;-58
2023/05/16 08:31:41;;;;;;;12.80;7.70;;;;;;;15.48;100.00;99996.56;5566942;32;33591;-58
2023/05/16 08:34:44;;;;;;;11.45;6.45;;;;;;;15.51;100.00;99979.72;5566519;31;33645;-57
2023/05/16 08:37:46;;;;;;;9.23;6.65;;;;;;;15.32;100.00;99971.19;5569028;31;34216;-58
2023/05/16 08:40:49;;;;;;;8.45;6.30;;;;;;;15.50;100.00;99971.94;5567221;32;33787;-58
2023/05/16 08:43:52;;;;;;;7.30;6.25;;;;;;;15.67;100.00;99966.50;5568747;32;33608;-58
2023/05/16 08:46:55;;;;;;;8.05;6.35;;;;;;;15.41;100.00;99965.75;5570781;31;33563;-58
2023/05/16 08:50:01;;;;;;;7.47;5.65;;;;;;;15.43;100.00;99969.72;5568215;31;34371;-58
2023/05/16 08:53:07;;;;;;;9.60;7.20;;;;;;;15.41;100.00;99981.97;5567429;32;33371;-58
2023/05/16 08:56:09;;;;;;;10.95;6.85;;;;;;;15.57;100.00;99980.34;5568892;31;33683;-58
2023/05/16 08:59:12;;;;;;;14.48;6.60;;;;;;;15.53;100.00;99976.69;5572502;31;33686;-58
2023/05/16 09:02:21;;;;;;;11.05;6.68;;;;;;;15.42;100.00;99976.22;5572015;31;34002;-58
2023/05/16 09:05:24;;;;;;;8.65;6.35;;;;;;;15.49;100.00;99964.94;5568917;32;33583;-58
2023/05/16 09:08:31;;;;;;;11.32;7.80;;;;;;;15.45;100.00;99972.88;5568815;31;34232;-56
2023/05/16 09:11:34;;;;;;;9.27;6.55;;;;;;;15.46;100.00;99970.97;5571625;31;33408;-58
2023/05/16 09:14:38;;;;;;;10.07;6.30;;;;;;;15.40;100.00;99962.28;5568016;31;34236;-58
2023/05/16 09:17:45;;;;;;;9.75;6.68;;;;;;;15.50;100.00;99964.63;5569380;31;34369;-57
2023/05/16 09:20:48;;;;;;;10.38;6.53;;;;;;;15.45;100.00;99962.09;5569660;31;33755;-58
2023/05/16 09:23:52;;;;;;;12.63;6.97;;;;;;;15.52;100.00;99969.69;5568308;31;33335;-58
2023/05/16 09:26:55;;;;;;;7.80;5.43;;;;;;;15.67;100.00;99957.59;5569371;32;34471;-58
2023/05/16 09:29:58;;;;;;;7.47;5.53;;;;;;;15.77;100.00;99962.66;5568762;31;33596;-58
2023/05/16 09:33:00;;;;;;;9.65;6.07;;;;;;;15.68;100.00;99962.66;5572254;31;33616;-57
2023/05/16 09:36:03;;;;;;;9.00;6.30;;;;;;;15.74;100.00;99955.19;5578277;31;34035;-58
2023/05/16 09:39:06;;;;;;;9.52;5.82;;;;;;;15.75;100.00;99959.47;5577957;31;33821;-57
2023/05/16 09:42:13;;;;;;;11.23;6.25;;;;;;;15.86;100.00;99960.69;5562844;32;34331;-58
2023/05/16 09:45:16;;;;;;;10.18;5.87;;;;;;;15.91;100.00;99963.19;5570539;31;33673;-57
2023/05/16 09:48:20;;;;;;;12.57;6.05;;;;;;;15.82;100.00;99967.84;5569900;31;34279;-58
2023/05/16 09:51:22;;;;;;;7.32;4.87;;;;;;;15.84;100.00;99965.63;5569186;32;33750;-58
2023/05/16 09:54:30;;;;;;;6.55;5.05;;;;;;;15.88;100.00;99963.84;5581291;31;33259;-58
2023/05/16 09:57:36;;;;;;;6.25;5.18;;;;;;;15.87;100.00;99959.56;5567775;31;33637;-57
2023/05/16 10:00:40;;;;;;;6.22;4.70;;;;;;;15.81;100.00;99963.56;5574445;31;33646;-58
2023/05/16 10:03:42;;;;;;;7.62;4.80;;;;;;;15.90;100.00;99956.22;5574188;31;33598;-58
2023/05/16 10:06:46;;;;;;;5.97;4.72;;;;;;;15.93;100.00;99973.72;5569205;31;33705;-58
2023/05/16 10:09:50;;;;;;;6.82;5.18;;;;;;;15.87;100.00;99964.19;5569394;31;34354;-58
2023/05/16 10:12:57;;;;;;;8.85;5.62;;;;;;;15.88;100.00;99963.84;5567412;31;34334;-58
2023/05/16 10:16:06;;;;;;;7.43;5.37;;;;;;;15.93;100.00;99965.59;5567253;31;33744;-58
2023/05/16 10:19:10;;;;;;;8.43;5.85;;;;;;;15.87;100.00;99961.50;5565506;32;33791;-58
2023/05/16 10:22:15;;;;;;;6.97;5.65;;;;;;;15.95;100.00;99950.63;5577375;31;33618;-58
2023/05/16 10:25:37;;;;;;;7.82;5.65;;;;;;;15.96;100.00;99940.63;5570907;31;33631;-58
2023/05/16 10:28:40;;;;;;;7.50;5.53;;;;;;;15.92;100.00;99940.44;5569106;31;33746;-58
2023/05/16 10:31:43;;;;;;;9.05;5.97;;;;;;;15.93;100.00;99931.25;5566480;31;33250;-58
2023/05/16 10:34:46;;;;;;;9.75;6.28;;;;;;;15.96;100.00;99927.09;5568233;31;33594;-58
2023/05/16 10:37:50;;;;;;;9.07;6.78;;;;;;;16.02;100.00;99927.69;5568615;31;33792;-58
2023/05/16 10:40:53;;;;;;;8.43;6.65;;;;;;;16.05;100.00;99930.53;5566959;32;33682;-58
2023/05/16 10:43:57;;;;;;;8.07;6.37;;;;;;;16.00;100.00;99938.84;5568186;32;33656;-58
2023/05/16 10:47:03;;;;;;;9.50;6.50;;;;;;;16.01;100.00;99934.22;5567953;32;34370;-58
2023/05/16 10:50:06;;;;;;;8.02;6.80;;;;;;;15.96;100.00;99932.50;5564364;31;33721;-57
2023/05/16 10:53:22;;;;;;;9.35;6.00;;;;;;;15.89;100.00;99910.56;5566501;31;34321;-57
2023/05/16 10:56:25;;;;;;;11.32;6.20;;;;;;;15.95;100.00;99901.16;5563544;32;34320;-58
2023/05/16 10:59:28;;;;;;;7.62;6.65;;;;;;;16.14;100.00;99893.41;5560905;32;33711;-58
2023/05/16 11:02:38;;;;;;;9.25;5.55;;;;;;;16.11;100.00;99885.94;5568662;32;34415;-58
2023/05/16 11:05:42;;;;;;;7.32;5.87;;;;;;;16.23;100.00;99887.94;5566731;32;34378;-58
2023/05/16 11:09:10;;;;;;;7.40;5.82;;;;;;;16.24;100.00;99881.41;5567059;32;33676;-57
2023/05/16 11:12:13;;;;;;;7.45;5.85;;;;;;;16.21;100.00;99869.34;5557227;32;33642;-58
2023/05/16 11:15:31;;;;;;;8.57;6.20;;;;;;;16.18;100.00;99878.09;5553143;32;33652;-58
2023/05/16 11:18:33;;;;;;;7.85;5.50;;;;;;;16.18;100.00;99863.78;5568354;32;34360;-58
2023/05/16 11:22:07;;;;;;;6.43;5.37;;;;;;;16.15;100.00;99842.81;5540975;32;33590;-58
2023/05/16 11:25:11;;;;;;;8.02;5.72;;;;;;;16.29;100.00;99834.44;5541603;32;33764;-58
2023/05/16 11:28:14;;;;;;;7.40;5.68;;;;;;;16.30;100.00;99838.75;5572031;31;34302;-57
2023/05/16 11:31:20;;;;;;;7.07;5.53;;;;;;;16.35;100.00;99842.00;5567283;32;33324;-57
2023/05/16 11:34:22;;;;;;;10.30;5.62;;;;;;;16.28;100.00;99839.06;5566360;32;33661;-57
2023/05/16 11:37:26;;;;;;;7.25;4.93;;;;;;;16.28;100.00;99854.50;5549393;32;33798;-57
2023/05/16 11:40:28;;;;;;;6.97;5.30;;;;;;;16.35;100.00;99858.25;5559766;32;33695;-57
2023/05/16 11:43:40;;;;;;;7.93;5.80;;;;;;;16.32;100.00;99850.00;5566181;32;33681;-57
2023/05/16 11:46:43;;;;;;;7.97;5.97;;;;;;;16.30;100.00;99844.94;5566342;32;33744;-56
2023/05/16 11:49:46;;;;;;;8.57;5.90;;;;;;;16.40;100.00;99833.69;5567648;32;34300;-57
2023/05/16 11:52:52;;;;;;;8.95;6.25;;;;;;;16.38;100.00;99837.84;5565801;32;34106;-56
2023/05/16 11:55:58;;;;;;;9.80;6.00;;;;;;;16.34;100.00;99832.31;5548060;32;33583;-57
2023/05/16 11:59:02;;;;;;;8.03;5.90;;;;;;;16.36;100.00;99824.69;5557571;32;33823;-57
2023/05/16 12:02:05;;;;;;;9.07;6.10;;;;;;;16.44;100.00;99820.31;5566662;32;33624;-57
2023/05/16 12:05:08;;;;;;;8.25;6.50;;;;;;;16.57;100.00;99815.72;5583840;31;33670;-57
2023/05/16 12:08:11;;;;;;;8.88;6.28;;;;;;;16.44;100.00;99807.56;5579687;31;33926;-56
2023/05/16 12:11:14;;;;;;;9.75;5.87;;;;;;;16.50;100.00;99808.16;5574019;31;33632;-57
2023/05/16 12:14:17;;;;;;;8.38;6.57;;;;;;;16.46;100.00;99815.34;5579128;31;33654;-57
2023/05/16 12:17:21;;;;;;;8.82;6.18;;;;;;;16.43;100.00;99813.31;5570036;31;34346;-57
2023/05/16 12:20:24;;;;;;;9.82;6.95;;;;;;;16.42;100.00;99809.00;5570133;31;34378;-57
2023/05/16 12:23:28;;;;;;;10.32;5.95;;;;;;;16.41;100.00;99816.34;5570077;31;33763;-57
2023/05/16 12:26:32;;;;;;;9.15;5.70;;;;;;;16.55;100.00;99826.88;5568839;31;33618;-56
2023/05/16 12:29:34;;;;;;;8.85;6.12;;;;;;;16.66;100.00;99824.56;5568057;31;34310;-57
2023/05/16 12:32:37;;;;;;;10.60;6.87;;;;;;;16.62;100.00;99831.72;5570599;31;33793;-56
2023/05/16 12:35:42;;;;;;;7.22;5.15;;;;;;;16.59;100.00;99829.72;5568693;32;33763;-57
2023/05/16 12:38:46;;;;;;;12.18;5.68;;;;;;;16.60;100.00;99823.97;5566712;31;34301;-57
2023/05/16 12:41:48;;;;;;;9.88;5.95;;;;;;;16.64;100.00;99810.56;5576895;31;33280;-57
2023/05/16 12:44:54;;;;;;;6.70;5.50;;;;;;;16.68;100.00;99822.28;5569647;31;33910;-56
2023/05/16 12:48:04;;;;;;;9.57;5.85;;;;;;;16.70;100.00;99821.97;5572811;31;33684;-56
2023/05/16 12:51:18;;;;;;;10.00;5.65;;;;;;;16.66;100.00;99830.75;5569798;31;33747;-57
2023/05/16 12:54:21;;;;;;;10.65;5.87;;;;;;;16.57;100.00;99827.34;5570144;31;33725;-57
2023/05/16 12:57:25;;;;;;;11.12;5.57;;;;;;;16.59;100.00;99829.72;5568226;32;33691;-57
2023/05/16 13:00:27;;;;;;;10.25;5.80;;;;;;;16.54;100.00;99813.69;5569161;32;33573;-57
2023/05/16 13:03:31;;;;;;;10.82;5.82;;;;;;;16.57;100.00;99805.69;5568083;32;34222;-57
2023/05/16 13:06:37;;;;;;;7.93;5.57;;;;;;;16.59;100.00;99805.38;5571784;31;33584;-56
2023/05/16 13:09:59;;;;;;;11.07;6.35;;;;;;;16.66;100.00;99806.41;5561704;32;34315;-57
2023/05/16 13:13:03;;;;;;;9.57;6.60;;;;;;;16.65;100.00;99801.31;5565101;32;34398;-56
2023/05/16 13:16:05;;;;;;;11.32;6.53;;;;;;;16.65;100.00;99787.78;5568313;31;34237;-56
2023/05/16 13:19:08;;;;;;;10.57;6.62;;;;;;;16.68;100.00;99782.47;5563368;31;33978;-56
2023/05/16 13:22:10;;;;;;;8.13;5.62;;;;;;;16.71;100.00;99781.03;5570387;31;33643;-55
2023/05/16 13:25:13;;;;;;;13.75;5.95;;;;;;;16.72;100.00;99768.28;5568528;31;34395;-56
2023/05/16 13:28:15;;;;;;;10.43;6.35;;;;;;;16.82;100.00;99762.44;5566739;32;33666;-56
2023/05/16 13:31:18;;;;;;;8.43;6.05;;;;;;;16.89;100.00;99758.09;5569452;31;33752;-56
2023/05/16 13:34:20;;;;;;;10.45;6.40;;;;;;;16.90;100.00;99751.53;5572334;31;33997;-55
2023/05/16 13:37:23;;;;;;;11.85;7.25;;;;;;;16.94;100.00;99743.53;5569094;32;33736;-56
2023/05/16 13:40:26;;;;;;;10.30;6.35;;;;;;;16.82;100.00;99729.97;5568179;32;33783;-57
2023/05/16 13:43:29;;;;;;;9.40;5.90;;;;;;;16.84;100.00;99730.44;5576988;31;33693;-56
2023/05/16 13:46:31;;;;;;;10.65;6.03;;;;;;;16.87;100.00;99729.75;5583218;31;33757;-55
2023/05/16 13:49:34;;;;;;;10.00;6.85;;;;;;;16.86;100.00;99722.78;5564884;31;34192;-56
2023/05/16 13:52:37;;;;;;;9.13;5.97;;;;;;;16.88;100.00;99731.31;5568681;32;33747;-56
2023/05/16 13:55:39;;;;;;;9.02;6.07;;;;;;;16.89;100.00;99735.63;5569307;31;33626;-56
2023/05/16 13:58:43;;;;;;;15.95;7.00;;;;;;;16.94;100.00;99732.69;5569403;31;33781;-56
2023/05/16 14:02:03;;;;;;;9.52;6.60;;;;;;;17.09;100.00;99728.53;5569185;32;34362;-56
2023/05/16 14:05:08;;;;;;;8.98;6.37;;;;;;;17.14;100.00;99723.66;5569380;32;33877;-56
2023/05/16 14:08:10;;;;;;;9.18;6.40;;;;;;;17.23;100.00;99720.03;5581502;31;33408;-56
2023/05/16 14:11:12;;;;;;;8.57;6.10;;;;;;;17.18;100.00;99706.72;5588888;31;33587;-57
2023/05/16 14:14:15;;;;;;;8.82;5.72;;;;;;;17.23;100.00;99720.03;5588985;31;33688;-56
2023/05/16 14:17:17;;;;;;;10.55;6.15;;;;;;;17.25;100.00;99715.06;5587941;31;33553;-56
2023/05/16 14:20:19;;;;;;;9.00;6.30;;;;;;;17.24;100.00;99719.69;5580524;31;33946;-56
2023/05/16 14:23:22;;;;;;;11.52;7.20;;;;;;;17.20;100.00;99720.72;5569233;32;34395;-56
2023/05/16 14:26:25;;;;;;;8.88;5.78;;;;;;;17.24;100.00;99718.91;5568956;32;33738;-56
2023/05/16 14:29:28;;;;;;;11.88;7.18;;;;;;;17.24;100.00;99716.19;5580802;31;33601;-56
2023/05/16 14:32:30;;;;;;;10.32;5.82;;;;;;;17.29;100.00;99727.59;5584364;31;33368;-56
2023/05/16 14:35:32;;;;;;;10.48;6.45;;;;;;;17.30;100.00;99740.00;5588223;31;33633;-56
2023/05/16 14:38:35;;;;;;;11.10;6.37;;;;;;;17.27;100.00;99740.69;5580781;31;34423;-56
2023/05/16 14:41:37;;;;;;;9.15;6.32;;;;;;;17.27;100.00;99739.91;5588406;31;34301;-56
2023/05/16 14:44:39;;;;;;;8.50;5.93;;;;;;;17.27;100.00;99745.31;5576434;31;34335;-56
2023/05/16 14:47:42;;;;;;;12.35;6.87;;;;;;;17.32;100.00;99745.09;5568847;31;34427;-56
2023/05/16 14:50:44;;;;;;;10.35;6.25;;;;;;;17.27;100.00;99746.09;5569260;32;34356;-55
2023/05/16 14:53:47;;;;;;;9.20;6.00;;;;;;;17.28;100.00;99736.84;5568992;32;34441;-56
2023/05/16 14:56:49;;;;;;;12.77;6.15;;;;;;;17.20;100.00;99737.75;5570156;31;34286;-56
2023/05/16 14:59:51;;;;;;;9.13;6.25;;;;;;;17.10;100.00;99736.31;5577246;31;33801;-56
2023/05/16 15:02:55;;;;;;;11.55;6.72;;;;;;;17.14;100.00;99734.47;5575990;31;34403;-56
2023/05/16 15:05:58;;;;;;;13.10;7.43;;;;;;;17.16;100.00;99738.78;5585130;31;34308;-56
2023/05/16 15:09:00;;;;;;;10.90;7.10;;;;;;;17.12;100.00;99742.19;5575255;31;33656;-56
2023/05/16 15:12:04;;;;;;;9.75;7.07;;;;;;;17.11;100.00;99742.50;5574738;31;33602;-56
2023/05/16 15:15:10;;;;;;;10.95;7.12;;;;;;;17.12;100.00;99752.22;5571274;31;33668;-55
2023/05/16 15:18:14;;;;;;;14.80;9.10;;;;;;;17.17;100.00;99749.28;5579113;31;33824;-56
2023/05/16 15:21:16;;;;;;;11.43;7.35;;;;;;;17.13;100.00;99748.38;5585096;31;34381;-56
2023/05/16 15:24:18;;;;;;;11.02;6.97;;;;;;;17.11;100.00;99742.50;5569682;31;34364;-56
2023/05/16 15:27:21;;;;;;;10.07;7.18;;;;;;;17.05;100.00;99730.31;5578653;31;33316;-56
2023/05/16 15:30:24;;;;;;;12.07;6.68;;;;;;;17.06;100.00;99730.00;5574340;31;33660;-55
2023/05/16 15:33:26;;;;;;;10.80;7.75;;;;;;;17.04;100.00;99731.44;5573848;31;33732;-56
2023/05/16 15:36:28;;;;;;;12.98;8.02;;;;;;;17.01;100.00;99718.59;5577929;31;33602;-56
2023/05/16 15:39:30;;;;;;;11.60;7.40;;;;;;;17.03;100.00;99719.03;5573574;31;33361;-56
2023/05/16 15:42:34;;;;;;;13.57;7.25;;;;;;;17.06;100.00;99718.37;5568445;31;33731;-56
2023/05/16 15:45:36;;;;;;;11.90;6.47;;;;;;;17.02;100.00;99718.25;5575784;31;33678;-56
2023/05/16 15:48:43;;;;;;;12.35;7.43;;;;;;;16.97;100.00;99706.88;5568213;31;33823;-56
